sensor_id;sensor_type;location;lat;lon;timestamp;temperature;humidity
59469;DHT22;45277;52.768;18.262;2023-05-10T00:00:02;6.50;99.90
59469;DHT22;45277;52.768;18.262;2023-05-10T00:01:55;6.50;99.90
59469;DHT22;45277;52.768;18.262;2023-05-10T00:03:27;6.40;99.90
59469;DHT22;45277;52.768;18.262;2023-05-10T00:04:58;6.40;99.90
59469;DHT22;45277;52.768;18.262;2023-05-10T00:06:30;6.50;99.90
59469;DHT22;45277;52.768;18.262;2023-05-10T00:08:01;6.40;99.90
59469;DHT22;45277;52.768;18.262;2023-05-10T00:09:32;6.40;99.90
59469;DHT22;45277;52.768;18.262;2023-05-10T00:11:04;6.40;99.90
59469;DHT22;45277;52.768;18.262;2023-05-10T00:12:35;6.40;99.90
59469;DHT22;45277;52.768;18.262;2023-05-10T00:14:07;6.40;99.90
59469;DHT22;45277;52.768;18.262;2023-05-10T00:15:38;6.40;99.90
59469;DHT22;45277;52.768;18.262;2023-05-10T00:17:09;6.40;99.90
59469;DHT22;45277;52.768;18.262;2023-05-10T00:18:41;6.40;99.90
59469;DHT22;45277;52.768;18.262;2023-05-10T00:20:12;6.40;99.90
59469;DHT22;45277;52.768;18.262;2023-05-10T00:21:43;6.50;99.90
59469;DHT22;45277;52.768;18.262;2023-05-10T00:23:15;6.40;99.90
59469;DHT22;45277;52.768;18.262;2023-05-10T00:24:46;6.50;99.90
59469;DHT22;45277;52.768;18.262;2023-05-10T00:26:18;6.40;99.90
59469;DHT22;45277;52.768;18.262;2023-05-10T00:27:50;6.30;99.90
59469;DHT22;45277;52.768;18.262;2023-05-10T00:29:21;6.40;99.90
59469;DHT22;45277;52.768;18.262;2023-05-10T00:30:52;6.30;99.90
59469;DHT22;45277;52.768;18.262;2023-05-10T00:32:24;6.30;99.90
59469;DHT22;45277;52.768;18.262;2023-05-10T00:33:55;6.20;99.90
59469;DHT22;45277;52.768;18.262;2023-05-10T00:35:27;6.10;99.90
59469;DHT22;45277;52.768;18.262;2023-05-10T00:36:58;6.10;99.90
59469;DHT22;45277;52.768;18.262;2023-05-10T00:38:29;5.90;99.90
59469;DHT22;45277;52.768;18.262;2023-05-10T00:40:01;5.90;99.90
59469;DHT22;45277;52.768;18.262;2023-05-10T00:41:33;5.90;99.90
59469;DHT22;45277;52.768;18.262;2023-05-10T00:43:04;5.90;99.90
59469;DHT22;45277;52.768;18.262;2023-05-10T00:44:35;5.90;99.90
59469;DHT22;45277;52.768;18.262;2023-05-10T00:46:07;5.80;99.90
59469;DHT22;45277;52.768;18.262;2023-05-10T00:47:39;5.70;99.90
59469;DHT22;45277;52.768;18.262;2023-05-10T00:49:11;5.60;99.90
59469;DHT22;45277;52.768;18.262;2023-05-10T00:50:43;5.50;99.90
59469;DHT22;45277;52.768;18.262;2023-05-10T00:52:15;5.50;99.90
59469;DHT22;45277;52.768;18.262;2023-05-10T00:53:47;5.50;99.90
59469;DHT22;45277;52.768;18.262;2023-05-10T00:55:20;5.50;99.90
59469;DHT22;45277;52.768;18.262;2023-05-10T00:56:51;5.40;99.90
59469;DHT22;45277;52.768;18.262;2023-05-10T00:58:23;5.40;99.90
59469;DHT22;45277;52.768;18.262;2023-05-10T00:59:59;5.40;99.90
59469;DHT22;45277;52.768;18.262;2023-05-10T01:01:30;5.30;99.90
59469;DHT22;45277;52.768;18.262;2023-05-10T01:03:02;5.30;99.90
59469;DHT22;45277;52.768;18.262;2023-05-10T01:04:35;5.30;99.90
59469;DHT22;45277;52.768;18.262;2023-05-10T01:06:06;5.30;99.90
59469;DHT22;45277;52.768;18.262;2023-05-10T01:07:38;5.20;99.90
59469;DHT22;45277;52.768;18.262;2023-05-10T01:09:11;5.20;99.90
59469;DHT22;45277;52.768;18.262;2023-05-10T01:10:43;5.10;99.90
59469;DHT22;45277;52.768;18.262;2023-05-10T01:12:15;5.20;99.90
59469;DHT22;45277;52.768;18.262;2023-05-10T01:13:52;5.20;99.90
59469;DHT22;45277;52.768;18.262;2023-05-10T01:15:26;5.20;99.90
59469;DHT22;45277;52.768;18.262;2023-05-10T01:16:57;5.10;99.90
59469;DHT22;45277;52.768;18.262;2023-05-10T01:18:30;5.00;99.90
59469;DHT22;45277;52.768;18.262;2023-05-10T01:20:04;5.10;99.90
59469;DHT22;45277;52.768;18.262;2023-05-10T01:21:49;5.20;99.90
59469;DHT22;45277;52.768;18.262;2023-05-10T01:23:43;5.20;99.90
59469;DHT22;45277;52.768;18.262;2023-05-10T01:27:53;5.20;99.90
59469;DHT22;45277;52.768;18.262;2023-05-10T01:30:09;5.20;99.90
59469;DHT22;45277;52.768;18.262;2023-05-10T01:35:40;5.30;99.90
59469;DHT22;45277;52.768;18.262;2023-05-10T01:37:17;5.30;99.90
59469;DHT22;45277;52.768;18.262;2023-05-10T01:38:57;5.40;99.90
59469;DHT22;45277;52.768;18.262;2023-05-10T01:40:35;5.30;99.90
59469;DHT22;45277;52.768;18.262;2023-05-10T01:42:11;5.30;99.90
59469;DHT22;45277;52.768;18.262;2023-05-10T01:46:24;5.30;99.90
59469;DHT22;45277;52.768;18.262;2023-05-10T01:48:02;5.30;99.90
59469;DHT22;45277;52.768;18.262;2023-05-10T01:49:39;5.40;99.90
59469;DHT22;45277;52.768;18.262;2023-05-10T01:51:23;5.40;99.90
59469;DHT22;45277;52.768;18.262;2023-05-10T01:52:57;5.40;99.90
59469;DHT22;45277;52.768;18.262;2023-05-10T01:54:29;5.50;99.90
59469;DHT22;45277;52.768;18.262;2023-05-10T01:56:02;5.50;99.90
59469;DHT22;45277;52.768;18.262;2023-05-10T01:57:36;5.50;99.90
59469;DHT22;45277;52.768;18.262;2023-05-10T01:59:13;5.40;99.90
59469;DHT22;45277;52.768;18.262;2023-05-10T02:00:47;5.50;99.90
59469;DHT22;45277;52.768;18.262;2023-05-10T02:02:21;5.50;99.90
59469;DHT22;45277;52.768;18.262;2023-05-10T02:03:55;5.50;99.90
59469;DHT22;45277;52.768;18.262;2023-05-10T02:05:28;5.50;99.90
59469;DHT22;45277;52.768;18.262;2023-05-10T02:07:01;5.50;99.90
59469;DHT22;45277;52.768;18.262;2023-05-10T02:08:35;5.50;99.90
59469;DHT22;45277;52.768;18.262;2023-05-10T02:10:08;5.50;99.90
59469;DHT22;45277;52.768;18.262;2023-05-10T02:11:43;5.50;99.90
59469;DHT22;45277;52.768;18.262;2023-05-10T02:13:16;5.50;99.90
59469;DHT22;45277;52.768;18.262;2023-05-10T02:14:49;5.50;99.90
59469;DHT22;45277;52.768;18.262;2023-05-10T02:16:24;5.50;99.90
59469;DHT22;45277;52.768;18.262;2023-05-10T02:17:58;5.50;99.90
59469;DHT22;45277;52.768;18.262;2023-05-10T02:19:32;5.50;99.90
59469;DHT22;45277;52.768;18.262;2023-05-10T02:21:05;5.40;99.90
59469;DHT22;45277;52.768;18.262;2023-05-10T02:22:37;5.40;99.90
59469;DHT22;45277;52.768;18.262;2023-05-10T02:24:11;5.40;99.90
59469;DHT22;45277;52.768;18.262;2023-05-10T02:25:44;5.40;99.90
59469;DHT22;45277;52.768;18.262;2023-05-10T02:27:17;5.30;99.90
59469;DHT22;45277;52.768;18.262;2023-05-10T02:28:51;5.30;99.90
59469;DHT22;45277;52.768;18.262;2023-05-10T02:30:24;5.20;99.90
59469;DHT22;45277;52.768;18.262;2023-05-10T02:31:57;5.20;99.90
59469;DHT22;45277;52.768;18.262;2023-05-10T02:33:30;5.20;99.90
59469;DHT22;45277;52.768;18.262;2023-05-10T02:35:04;5.20;99.90
59469;DHT22;45277;52.768;18.262;2023-05-10T02:36:37;5.20;99.90
59469;DHT22;45277;52.768;18.262;2023-05-10T02:38:09;5.10;99.90
59469;DHT22;45277;52.768;18.262;2023-05-10T02:39:43;5.20;99.90
59469;DHT22;45277;52.768;18.262;2023-05-10T02:41:16;5.20;99.90
59469;DHT22;45277;52.768;18.262;2023-05-10T02:42:50;5.20;99.90
59469;DHT22;45277;52.768;18.262;2023-05-10T02:44:23;5.20;99.90
59469;DHT22;45277;52.768;18.262;2023-05-10T02:45:56;5.10;99.90
59469;DHT22;45277;52.768;18.262;2023-05-10T02:47:29;5.20;99.90
59469;DHT22;45277;52.768;18.262;2023-05-10T02:49:01;5.20;99.90
59469;DHT22;45277;52.768;18.262;2023-05-10T02:50:33;5.20;99.90
59469;DHT22;45277;52.768;18.262;2023-05-10T02:52:08;5.30;99.90
59469;DHT22;45277;52.768;18.262;2023-05-10T02:53:42;5.30;99.90
59469;DHT22;45277;52.768;18.262;2023-05-10T02:55:16;5.30;99.90
59469;DHT22;45277;52.768;18.262;2023-05-10T02:56:59;5.30;99.90
59469;DHT22;45277;52.768;18.262;2023-05-10T02:58:32;5.30;99.90
59469;DHT22;45277;52.768;18.262;2023-05-10T03:00:03;5.30;99.90
59469;DHT22;45277;52.768;18.262;2023-05-10T03:01:35;5.30;99.90
59469;DHT22;45277;52.768;18.262;2023-05-10T03:03:07;5.30;99.90
59469;DHT22;45277;52.768;18.262;2023-05-10T03:04:39;5.40;99.90
59469;DHT22;45277;52.768;18.262;2023-05-10T03:06:10;5.40;99.90
59469;DHT22;45277;52.768;18.262;2023-05-10T03:07:42;5.40;99.90
59469;DHT22;45277;52.768;18.262;2023-05-10T03:09:14;5.40;99.90
59469;DHT22;45277;52.768;18.262;2023-05-10T03:13:32;5.50;99.90
59469;DHT22;45277;52.768;18.262;2023-05-10T03:20:51;5.60;99.90
59469;DHT22;45277;52.768;18.262;2023-05-10T03:22:41;5.60;99.90
59469;DHT22;45277;52.768;18.262;2023-05-10T03:24:16;5.70;99.90
59469;DHT22;45277;52.768;18.262;2023-05-10T03:25:50;5.80;99.90
59469;DHT22;45277;52.768;18.262;2023-05-10T03:27:23;5.90;99.90
59469;DHT22;45277;52.768;18.262;2023-05-10T03:28:57;5.90;99.90
59469;DHT22;45277;52.768;18.262;2023-05-10T03:30:31;5.90;99.90
59469;DHT22;45277;52.768;18.262;2023-05-10T03:32:02;6.00;99.90
59469;DHT22;45277;52.768;18.262;2023-05-10T03:33:34;6.00;99.90
59469;DHT22;45277;52.768;18.262;2023-05-10T03:35:12;6.10;99.90
59469;DHT22;45277;52.768;18.262;2023-05-10T03:36:45;6.20;99.90
59469;DHT22;45277;52.768;18.262;2023-05-10T03:38:16;6.20;99.90
59469;DHT22;45277;52.768;18.262;2023-05-10T03:39:48;6.30;99.90
59469;DHT22;45277;52.768;18.262;2023-05-10T03:41:19;6.30;99.90
59469;DHT22;45277;52.768;18.262;2023-05-10T03:42:51;6.40;99.90
59469;DHT22;45277;52.768;18.262;2023-05-10T03:44:23;6.40;99.90
59469;DHT22;45277;52.768;18.262;2023-05-10T03:45:54;6.40;99.90
59469;DHT22;45277;52.768;18.262;2023-05-10T03:47:26;6.50;99.90
59469;DHT22;45277;52.768;18.262;2023-05-10T03:48:57;6.50;99.90
59469;DHT22;45277;52.768;18.262;2023-05-10T03:50:29;6.60;99.90
59469;DHT22;45277;52.768;18.262;2023-05-10T03:52:00;6.60;99.90
59469;DHT22;45277;52.768;18.262;2023-05-10T03:53:32;6.60;99.90
59469;DHT22;45277;52.768;18.262;2023-05-10T03:55:03;6.70;99.90
59469;DHT22;45277;52.768;18.262;2023-05-10T03:56:35;6.80;99.90
59469;DHT22;45277;52.768;18.262;2023-05-10T03:58:10;6.80;99.90
59469;DHT22;45277;52.768;18.262;2023-05-10T03:59:41;6.80;99.90
59469;DHT22;45277;52.768;18.262;2023-05-10T04:01:12;6.90;99.90
59469;DHT22;45277;52.768;18.262;2023-05-10T04:02:44;7.00;99.90
59469;DHT22;45277;52.768;18.262;2023-05-10T04:04:15;7.00;99.90
59469;DHT22;45277;52.768;18.262;2023-05-10T04:05:49;7.10;99.90
59469;DHT22;45277;52.768;18.262;2023-05-10T04:07:29;7.20;99.90
59469;DHT22;45277;52.768;18.262;2023-05-10T04:09:00;7.20;99.90
59469;DHT22;45277;52.768;18.262;2023-05-10T04:10:34;7.30;99.90
59469;DHT22;45277;52.768;18.262;2023-05-10T04:12:06;7.40;99.90
59469;DHT22;45277;52.768;18.262;2023-05-10T04:13:38;7.40;99.90
59469;DHT22;45277;52.768;18.262;2023-05-10T04:15:09;7.50;99.90
59469;DHT22;45277;52.768;18.262;2023-05-10T04:16:41;7.60;99.90
59469;DHT22;45277;52.768;18.262;2023-05-10T04:18:12;7.70;99.90
59469;DHT22;45277;52.768;18.262;2023-05-10T04:19:44;7.80;99.90
59469;DHT22;45277;52.768;18.262;2023-05-10T04:21:15;7.80;99.90
59469;DHT22;45277;52.768;18.262;2023-05-10T04:22:47;7.90;99.90
59469;DHT22;45277;52.768;18.262;2023-05-10T04:24:18;7.90;99.90
59469;DHT22;45277;52.768;18.262;2023-05-10T04:25:50;8.00;99.90
59469;DHT22;45277;52.768;18.262;2023-05-10T04:27:21;8.10;99.90
59469;DHT22;45277;52.768;18.262;2023-05-10T04:28:52;8.10;99.90
59469;DHT22;45277;52.768;18.262;2023-05-10T04:30:24;8.20;97.80
59469;DHT22;45277;52.768;18.262;2023-05-10T04:31:55;8.30;97.10
59469;DHT22;45277;52.768;18.262;2023-05-10T04:33:27;8.30;98.30
59469;DHT22;45277;52.768;18.262;2023-05-10T04:34:59;8.40;97.60
59469;DHT22;45277;52.768;18.262;2023-05-10T04:36:30;8.40;95.60
59469;DHT22;45277;52.768;18.262;2023-05-10T04:38:03;8.50;94.30
59469;DHT22;45277;52.768;18.262;2023-05-10T04:39:35;8.50;93.50
59469;DHT22;45277;52.768;18.262;2023-05-10T04:41:08;8.60;91.40
59469;DHT22;45277;52.768;18.262;2023-05-10T04:42:40;8.70;91.80
59469;DHT22;45277;52.768;18.262;2023-05-10T04:44:15;8.70;90.00
59469;DHT22;45277;52.768;18.262;2023-05-10T04:45:46;8.80;89.70
59469;DHT22;45277;52.768;18.262;2023-05-10T04:47:17;8.90;88.10
59469;DHT22;45277;52.768;18.262;2023-05-10T04:48:49;9.00;89.40
59469;DHT22;45277;52.768;18.262;2023-05-10T04:50:20;9.00;90.90
59469;DHT22;45277;52.768;18.262;2023-05-10T04:51:52;9.10;83.70
59469;DHT22;45277;52.768;18.262;2023-05-10T04:53:24;9.20;77.20
59469;DHT22;45277;52.768;18.262;2023-05-10T04:54:55;9.30;76.90
59469;DHT22;45277;52.768;18.262;2023-05-10T04:56:27;9.30;72.60
59469;DHT22;45277;52.768;18.262;2023-05-10T04:57:59;9.40;69.30
59469;DHT22;45277;52.768;18.262;2023-05-10T04:59:30;9.50;71.80
59469;DHT22;45277;52.768;18.262;2023-05-10T05:01:06;9.50;56.20
59469;DHT22;45277;52.768;18.262;2023-05-10T05:02:41;9.60;59.90
59469;DHT22;45277;52.768;18.262;2023-05-10T05:04:13;9.70;58.70
59469;DHT22;45277;52.768;18.262;2023-05-10T05:05:45;9.80;45.20
59469;DHT22;45277;52.768;18.262;2023-05-10T05:07:18;10.00;43.30
59469;DHT22;45277;52.768;18.262;2023-05-10T05:08:49;10.00;47.70
59469;DHT22;45277;52.768;18.262;2023-05-10T05:10:21;10.10;45.20
59469;DHT22;45277;52.768;18.262;2023-05-10T05:11:53;10.30;32.40
59469;DHT22;45277;52.768;18.262;2023-05-10T05:13:25;10.30;29.60
59469;DHT22;45277;52.768;18.262;2023-05-10T05:14:56;10.40;23.10
59469;DHT22;45277;52.768;18.262;2023-05-10T05:16:30;10.40;27.20
59469;DHT22;45277;52.768;18.262;2023-05-10T05:18:03;10.50;32.50
59469;DHT22;45277;52.768;18.262;2023-05-10T05:19:34;10.50;20.10
59469;DHT22;45277;52.768;18.262;2023-05-10T05:21:17;10.60;17.90
59469;DHT22;45277;52.768;18.262;2023-05-10T05:22:52;10.70;21.20
59469;DHT22;45277;52.768;18.262;2023-05-10T05:24:24;10.70;23.50
59469;DHT22;45277;52.768;18.262;2023-05-10T05:25:57;10.80;19.60
59469;DHT22;45277;52.768;18.262;2023-05-10T05:27:28;10.80;20.00
59469;DHT22;45277;52.768;18.262;2023-05-10T05:29:00;10.90;13.80
59469;DHT22;45277;52.768;18.262;2023-05-10T05:30:32;11.00;10.60
59469;DHT22;45277;52.768;18.262;2023-05-10T05:32:04;11.10;8.70
59469;DHT22;45277;52.768;18.262;2023-05-10T05:33:36;11.20;7.30
59469;DHT22;45277;52.768;18.262;2023-05-10T05:35:09;11.30;10.70
59469;DHT22;45277;52.768;18.262;2023-05-10T05:36:40;11.30;6.50
59469;DHT22;45277;52.768;18.262;2023-05-10T05:38:12;11.40;5.90
59469;DHT22;45277;52.768;18.262;2023-05-10T05:39:44;11.40;2.40
59469;DHT22;45277;52.768;18.262;2023-05-10T05:41:16;11.50;2.60
59469;DHT22;45277;52.768;18.262;2023-05-10T05:42:48;11.50;3.90
59469;DHT22;45277;52.768;18.262;2023-05-10T05:44:20;11.60;1.80
59469;DHT22;45277;52.768;18.262;2023-05-10T05:45:54;11.60;1.00
59469;DHT22;45277;52.768;18.262;2023-05-10T05:47:28;11.70;1.00
59469;DHT22;45277;52.768;18.262;2023-05-10T05:49:00;11.70;1.00
59469;DHT22;45277;52.768;18.262;2023-05-10T05:50:32;11.80;1.00
59469;DHT22;45277;52.768;18.262;2023-05-10T05:52:04;11.90;1.00
59469;DHT22;45277;52.768;18.262;2023-05-10T05:53:36;12.00;1.00
59469;DHT22;45277;52.768;18.262;2023-05-10T05:55:07;12.00;1.00
59469;DHT22;45277;52.768;18.262;2023-05-10T05:56:39;12.20;1.00
59469;DHT22;45277;52.768;18.262;2023-05-10T05:58:10;12.30;1.00
59469;DHT22;45277;52.768;18.262;2023-05-10T05:59:42;12.30;1.00
59469;DHT22;45277;52.768;18.262;2023-05-10T06:01:14;12.50;1.00
59469;DHT22;45277;52.768;18.262;2023-05-10T06:02:45;12.50;1.00
59469;DHT22;45277;52.768;18.262;2023-05-10T06:04:17;12.60;1.00
59469;DHT22;45277;52.768;18.262;2023-05-10T06:05:49;12.70;1.00
59469;DHT22;45277;52.768;18.262;2023-05-10T06:07:20;12.70;1.00
59469;DHT22;45277;52.768;18.262;2023-05-10T06:08:52;12.70;1.00
59469;DHT22;45277;52.768;18.262;2023-05-10T06:10:24;12.80;1.00
59469;DHT22;45277;52.768;18.262;2023-05-10T06:11:56;12.80;1.00
59469;DHT22;45277;52.768;18.262;2023-05-10T06:13:28;12.90;1.00
59469;DHT22;45277;52.768;18.262;2023-05-10T06:15:04;13.00;1.00
59469;DHT22;45277;52.768;18.262;2023-05-10T06:16:36;13.10;1.00
59469;DHT22;45277;52.768;18.262;2023-05-10T06:18:08;13.10;1.00
59469;DHT22;45277;52.768;18.262;2023-05-10T06:19:39;13.20;1.00
59469;DHT22;45277;52.768;18.262;2023-05-10T06:21:10;13.30;1.00
59469;DHT22;45277;52.768;18.262;2023-05-10T06:22:42;13.30;1.00
59469;DHT22;45277;52.768;18.262;2023-05-10T06:24:14;13.30;1.00
59469;DHT22;45277;52.768;18.262;2023-05-10T06:25:45;13.40;1.00
59469;DHT22;45277;52.768;18.262;2023-05-10T06:27:17;13.40;1.00
59469;DHT22;45277;52.768;18.262;2023-05-10T06:28:48;13.50;1.00
59469;DHT22;45277;52.768;18.262;2023-05-10T06:30:20;13.50;1.00
59469;DHT22;45277;52.768;18.262;2023-05-10T06:31:54;13.60;1.00
59469;DHT22;45277;52.768;18.262;2023-05-10T06:33:25;13.70;1.00
59469;DHT22;45277;52.768;18.262;2023-05-10T06:34:57;13.70;1.00
59469;DHT22;45277;52.768;18.262;2023-05-10T06:36:29;13.70;1.00
59469;DHT22;45277;52.768;18.262;2023-05-10T06:38:01;13.70;1.00
59469;DHT22;45277;52.768;18.262;2023-05-10T06:39:32;13.80;1.00
59469;DHT22;45277;52.768;18.262;2023-05-10T06:41:04;13.90;1.00
59469;DHT22;45277;52.768;18.262;2023-05-10T06:42:36;14.00;1.00
59469;DHT22;45277;52.768;18.262;2023-05-10T06:44:07;14.00;1.00
59469;DHT22;45277;52.768;18.262;2023-05-10T06:45:39;14.00;1.00
59469;DHT22;45277;52.768;18.262;2023-05-10T06:47:11;14.00;1.00
59469;DHT22;45277;52.768;18.262;2023-05-10T06:48:43;14.20;1.00
59469;DHT22;45277;52.768;18.262;2023-05-10T06:50:14;14.30;1.00
59469;DHT22;45277;52.768;18.262;2023-05-10T06:51:46;14.40;1.00
59469;DHT22;45277;52.768;18.262;2023-05-10T06:53:17;14.50;1.00
59469;DHT22;45277;52.768;18.262;2023-05-10T06:54:49;14.50;1.00
59469;DHT22;45277;52.768;18.262;2023-05-10T06:56:20;14.60;1.00
59469;DHT22;45277;52.768;18.262;2023-05-10T06:57:52;14.60;1.00
59469;DHT22;45277;52.768;18.262;2023-05-10T06:59:24;14.60;1.00
59469;DHT22;45277;52.768;18.262;2023-05-10T07:01:02;14.70;1.00
59469;DHT22;45277;52.768;18.262;2023-05-10T07:02:33;14.70;1.00
59469;DHT22;45277;52.768;18.262;2023-05-10T07:04:05;14.70;1.00
59469;DHT22;45277;52.768;18.262;2023-05-10T07:05:38;14.80;1.00
59469;DHT22;45277;52.768;18.262;2023-05-10T07:07:09;14.90;1.00
59469;DHT22;45277;52.768;18.262;2023-05-10T07:08:41;15.00;1.00
59469;DHT22;45277;52.768;18.262;2023-05-10T07:10:12;15.20;1.00
59469;DHT22;45277;52.768;18.262;2023-05-10T07:11:44;15.20;1.00
59469;DHT22;45277;52.768;18.262;2023-05-10T07:13:16;15.20;1.00
59469;DHT22;45277;52.768;18.262;2023-05-10T07:14:47;15.30;1.00
59469;DHT22;45277;52.768;18.262;2023-05-10T07:16:18;15.40;1.00
59469;DHT22;45277;52.768;18.262;2023-05-10T07:17:50;15.50;1.00
59469;DHT22;45277;52.768;18.262;2023-05-10T07:19:23;15.50;1.00
59469;DHT22;45277;52.768;18.262;2023-05-10T07:20:54;15.50;1.00
59469;DHT22;45277;52.768;18.262;2023-05-10T07:22:26;15.60;1.00
59469;DHT22;45277;52.768;18.262;2023-05-10T07:23:57;15.60;1.00
59469;DHT22;45277;52.768;18.262;2023-05-10T07:25:29;15.80;1.00
59469;DHT22;45277;52.768;18.262;2023-05-10T07:27:01;15.80;1.00
59469;DHT22;45277;52.768;18.262;2023-05-10T07:28:32;15.90;1.00
59469;DHT22;45277;52.768;18.262;2023-05-10T07:30:04;16.10;1.00
59469;DHT22;45277;52.768;18.262;2023-05-10T07:31:36;16.10;1.00
59469;DHT22;45277;52.768;18.262;2023-05-10T07:33:08;16.20;1.00
59469;DHT22;45277;52.768;18.262;2023-05-10T07:34:40;16.30;1.00
59469;DHT22;45277;52.768;18.262;2023-05-10T07:36:12;16.30;1.00
59469;DHT22;45277;52.768;18.262;2023-05-10T07:37:43;16.20;1.00
59469;DHT22;45277;52.768;18.262;2023-05-10T07:39:15;16.40;1.00
59469;DHT22;45277;52.768;18.262;2023-05-10T07:40:47;16.40;1.00
59469;DHT22;45277;52.768;18.262;2023-05-10T07:42:18;16.40;1.00
59469;DHT22;45277;52.768;18.262;2023-05-10T07:43:50;16.50;1.00
59469;DHT22;45277;52.768;18.262;2023-05-10T07:45:22;16.40;1.00
59469;DHT22;45277;52.768;18.262;2023-05-10T07:46:54;16.40;1.00
59469;DHT22;45277;52.768;18.262;2023-05-10T07:48:26;16.50;1.00
59469;DHT22;45277;52.768;18.262;2023-05-10T07:49:58;16.60;1.00
59469;DHT22;45277;52.768;18.262;2023-05-10T07:51:30;16.70;1.00
59469;DHT22;45277;52.768;18.262;2023-05-10T07:53:01;16.70;1.00
59469;DHT22;45277;52.768;18.262;2023-05-10T07:54:33;16.70;1.00
59469;DHT22;45277;52.768;18.262;2023-05-10T07:56:25;16.70;1.00
59469;DHT22;45277;52.768;18.262;2023-05-10T07:57:58;16.70;1.00
59469;DHT22;45277;52.768;18.262;2023-05-10T07:59:32;16.80;1.00
59469;DHT22;45277;52.768;18.262;2023-05-10T08:01:04;16.80;1.00
59469;DHT22;45277;52.768;18.262;2023-05-10T08:02:35;16.90;1.00
59469;DHT22;45277;52.768;18.262;2023-05-10T08:04:07;16.90;1.00
59469;DHT22;45277;52.768;18.262;2023-05-10T08:05:39;17.00;1.00
59469;DHT22;45277;52.768;18.262;2023-05-10T08:07:11;17.00;1.00
59469;DHT22;45277;52.768;18.262;2023-05-10T08:08:43;17.10;1.00
59469;DHT22;45277;52.768;18.262;2023-05-10T08:10:16;17.20;1.00
59469;DHT22;45277;52.768;18.262;2023-05-10T08:11:47;17.30;1.00
59469;DHT22;45277;52.768;18.262;2023-05-10T08:13:19;17.30;1.00
59469;DHT22;45277;52.768;18.262;2023-05-10T08:14:51;17.40;1.00
59469;DHT22;45277;52.768;18.262;2023-05-10T08:16:22;17.40;1.00
59469;DHT22;45277;52.768;18.262;2023-05-10T08:17:53;17.40;1.00
59469;DHT22;45277;52.768;18.262;2023-05-10T08:19:25;17.50;1.00
59469;DHT22;45277;52.768;18.262;2023-05-10T08:20:57;17.50;1.00
59469;DHT22;45277;52.768;18.262;2023-05-10T08:22:28;17.50;1.00
59469;DHT22;45277;52.768;18.262;2023-05-10T08:24:00;17.60;1.00
59469;DHT22;45277;52.768;18.262;2023-05-10T08:25:31;17.60;1.00
59469;DHT22;45277;52.768;18.262;2023-05-10T08:27:07;17.60;1.00
59469;DHT22;45277;52.768;18.262;2023-05-10T08:28:38;17.70;1.00
59469;DHT22;45277;52.768;18.262;2023-05-10T08:30:09;17.80;1.00
59469;DHT22;45277;52.768;18.262;2023-05-10T08:31:41;17.90;1.00
59469;DHT22;45277;52.768;18.262;2023-05-10T08:33:13;17.90;1.00
59469;DHT22;45277;52.768;18.262;2023-05-10T08:34:44;18.00;1.00
59469;DHT22;45277;52.768;18.262;2023-05-10T08:36:16;18.00;1.00
59469;DHT22;45277;52.768;18.262;2023-05-10T08:37:52;18.20;1.00
59469;DHT22;45277;52.768;18.262;2023-05-10T08:39:23;18.00;1.00
59469;DHT22;45277;52.768;18.262;2023-05-10T08:40:55;18.20;1.00
59469;DHT22;45277;52.768;18.262;2023-05-10T08:42:30;18.30;1.00
59469;DHT22;45277;52.768;18.262;2023-05-10T08:44:04;18.40;1.00
59469;DHT22;45277;52.768;18.262;2023-05-10T08:45:44;18.40;1.00
59469;DHT22;45277;52.768;18.262;2023-05-10T08:47:18;18.40;1.00
59469;DHT22;45277;52.768;18.262;2023-05-10T08:48:51;18.50;1.00
59469;DHT22;45277;52.768;18.262;2023-05-10T08:50:24;18.50;1.00
59469;DHT22;45277;52.768;18.262;2023-05-10T08:51:57;18.30;1.00
59469;DHT22;45277;52.768;18.262;2023-05-10T08:53:32;18.40;1.00
59469;DHT22;45277;52.768;18.262;2023-05-10T08:55:04;18.50;1.00
59469;DHT22;45277;52.768;18.262;2023-05-10T08:56:36;18.40;1.00
59469;DHT22;45277;52.768;18.262;2023-05-10T08:58:08;18.50;1.00
59469;DHT22;45277;52.768;18.262;2023-05-10T08:59:40;18.50;1.00
59469;DHT22;45277;52.768;18.262;2023-05-10T09:01:12;18.50;1.00
59469;DHT22;45277;52.768;18.262;2023-05-10T09:02:44;18.50;1.00
59469;DHT22;45277;52.768;18.262;2023-05-10T09:04:17;18.60;1.00
59469;DHT22;45277;52.768;18.262;2023-05-10T09:05:49;18.70;1.00
59469;DHT22;45277;52.768;18.262;2023-05-10T09:07:20;18.50;1.00
59469;DHT22;45277;52.768;18.262;2023-05-10T09:08:52;18.50;1.00
59469;DHT22;45277;52.768;18.262;2023-05-10T09:10:26;18.50;1.00
59469;DHT22;45277;52.768;18.262;2023-05-10T09:11:58;18.70;1.00
59469;DHT22;45277;52.768;18.262;2023-05-10T09:13:30;18.90;1.00
59469;DHT22;45277;52.768;18.262;2023-05-10T09:15:02;19.00;1.00
59469;DHT22;45277;52.768;18.262;2023-05-10T09:16:34;18.90;1.00
59469;DHT22;45277;52.768;18.262;2023-05-10T09:18:06;18.90;1.00
59469;DHT22;45277;52.768;18.262;2023-05-10T09:19:38;19.00;1.00
59469;DHT22;45277;52.768;18.262;2023-05-10T09:21:10;18.90;1.00
59469;DHT22;45277;52.768;18.262;2023-05-10T09:22:42;18.90;1.00
59469;DHT22;45277;52.768;18.262;2023-05-10T09:24:14;18.90;1.00
59469;DHT22;45277;52.768;18.262;2023-05-10T09:25:45;19.00;1.00
59469;DHT22;45277;52.768;18.262;2023-05-10T09:27:17;19.00;1.00
59469;DHT22;45277;52.768;18.262;2023-05-10T09:28:58;19.20;1.00
59469;DHT22;45277;52.768;18.262;2023-05-10T09:30:30;19.40;1.00
59469;DHT22;45277;52.768;18.262;2023-05-10T09:32:02;19.40;1.00
59469;DHT22;45277;52.768;18.262;2023-05-10T09:33:44;19.40;1.00
59469;DHT22;45277;52.768;18.262;2023-05-10T09:35:18;18.90;1.00
59469;DHT22;45277;52.768;18.262;2023-05-10T09:36:58;19.10;1.00
59469;DHT22;45277;52.768;18.262;2023-05-10T09:38:51;19.20;1.00
59469;DHT22;45277;52.768;18.262;2023-05-10T09:40:27;19.20;1.00
59469;DHT22;45277;52.768;18.262;2023-05-10T09:42:04;19.40;1.00
59469;DHT22;45277;52.768;18.262;2023-05-10T09:43:38;19.60;1.00
59469;DHT22;45277;52.768;18.262;2023-05-10T09:45:09;19.60;1.00
59469;DHT22;45277;52.768;18.262;2023-05-10T09:46:41;19.70;1.00
59469;DHT22;45277;52.768;18.262;2023-05-10T09:48:13;19.90;1.00
59469;DHT22;45277;52.768;18.262;2023-05-10T09:49:49;19.80;1.00
59469;DHT22;45277;52.768;18.262;2023-05-10T09:51:24;20.00;1.00
59469;DHT22;45277;52.768;18.262;2023-05-10T09:54:31;20.30;1.00
59469;DHT22;45277;52.768;18.262;2023-05-10T09:56:04;20.50;1.00
59469;DHT22;45277;52.768;18.262;2023-05-10T09:57:35;20.40;1.00
59469;DHT22;45277;52.768;18.262;2023-05-10T09:59:10;20.50;1.00
59469;DHT22;45277;52.768;18.262;2023-05-10T10:00:43;20.60;1.00
59469;DHT22;45277;52.768;18.262;2023-05-10T10:02:16;20.90;1.00
59469;DHT22;45277;52.768;18.262;2023-05-10T10:03:49;20.90;1.00
59469;DHT22;45277;52.768;18.262;2023-05-10T10:05:31;21.10;1.00